Time;durP1;ratioP1;P1;durP2;ratioP2;P2;SDS_P1;SDS_P2;PMS_P1;PMS_P2;Temp;Humidity;BMP_temperature;BMP_pressure;BME280_temperature;BME280_humidity;BME280_pressure;Samples;Min_cycle;Max_cycle;Signal;HPM_P1;HPM_P2
2021/04/15 00:01:20;;;;;;;9.05;4.95;;;;;;;1.82;78.37;101380.88;20737803;28;20049;-69
2021/04/15 00:11:24;;;;;;;11.57;6.07;;;;;;;1.74;78.85;101374.84;20740471;28;20455;-69
2021/04/15 00:21:25;;;;;;;10.43;5.80;;;;;;;1.53;80.81;101382.63;20730724;28;20050;-69
2021/04/15 00:31:28;;;;;;;10.63;5.97;;;;;;;1.43;81.78;101366.31;20735890;28;20589;-69
2021/04/15 00:41:35;;;;;;;12.07;6.22;;;;;;;1.38;82.34;101375.78;20753232;28;20053;-69
2021/04/15 00:51:40;;;;;;;11.90;6.47;;;;;;;1.39;81.90;101372.34;20752056;28;20050;-69
2021/04/15 01:01:41;;;;;;;11.65;6.75;;;;;;;1.44;81.38;101368.03;20749350;28;20050;-68
2021/04/15 01:11:55;;;;;;;11.00;6.40;;;;;;;1.18;84.21;101372.38;20750717;28;20108;-68
2021/04/15 01:22:33;;;;;;;12.50;6.95;;;;;;;1.07;84.42;101362.06;20749759;28;20049;-69
2021/04/15 01:32:46;;;;;;;11.93;6.00;;;;;;;0.76;85.61;101357.75;20748235;28;20045;-69
2021/04/15 01:42:56;;;;;;;10.02;6.65;;;;;;;0.70;87.65;101362.91;20746838;28;20556;-69
2021/04/15 01:53:14;;;;;;;10.98;6.80;;;;;;;0.46;87.70;101360.28;20747242;28;20101;-69
2021/04/15 02:03:22;;;;;;;10.32;6.20;;;;;;;0.40;88.31;101361.13;20748562;28;20041;-69
2021/04/15 02:13:26;;;;;;;17.10;7.75;;;;;;;0.29;88.58;101355.09;20745083;28;20498;-69
2021/04/15 02:23:33;;;;;;;11.65;6.68;;;;;;;0.11;90.58;101350.72;20745037;28;20077;-68
2021/04/15 02:34:00;;;;;;;14.98;7.50;;;;;;;0.08;90.20;101357.59;20743235;28;20045;-69
2021/04/15 02:44:07;;;;;;;13.15;7.18;;;;;;;0.10;90.57;101355.88;20743138;28;20053;-69
2021/04/15 02:54:14;;;;;;;17.67;8.23;;;;;;;0.14;91.17;101360.19;20742443;28;20050;-69
2021/04/15 03:04:19;;;;;;;12.30;6.95;;;;;;;0.07;91.86;101361.00;20741132;28;20057;-68
2021/04/15 03:14:23;;;;;;;;;;;;;;;-0.07;91.57;101369.53;20741486;28;20050;-68
2021/04/15 03:24:33;;;;;;;11.98;6.50;;;;;;;-0.17;92.29;101357.50;20739808;28;19922;-68
2021/04/15 03:35:01;;;;;;;13.20;7.68;;;;;;;-0.21;93.52;101360.91;20738206;28;20121;-68
2021/04/15 03:45:08;;;;;;;14.00;8.73;;;;;;;-0.34;94.02;101371.97;20738188;28;20117;-68
2021/04/15 03:55:19;;;;;;;16.80;9.20;;;;;;;-0.32;94.28;101369.41;20737876;28;20041;-69
2021/04/15 04:05:32;;;;;;;17.50;9.45;;;;;;;-0.34;95.11;101369.38;20735895;28;20069;-69
2021/04/15 04:15:38;;;;;;;18.60;9.70;;;;;;;-0.44;96.27;101367.63;20772653;28;20055;-69
2021/04/15 04:25:48;;;;;;;19.27;9.65;;;;;;;-0.48;97.33;101378.75;20816780;28;20100;-69
2021/04/15 04:35:50;;;;;;;24.77;11.80;;;;;;;-0.49;96.96;101377.88;20738020;28;20042;-69
2021/04/15 04:46:00;;;;;;;22.98;12.10;;;;;;;-0.44;97.82;101388.19;20734491;28;20050;-69
2021/04/15 04:56:23;;;;;;;27.38;13.70;;;;;;;-0.53;98.60;101395.84;20735583;28;20046;-69
2021/04/15 05:06:32;;;;;;;25.25;13.15;;;;;;;-0.44;97.90;101403.63;20732011;28;20054;-68
2021/04/15 05:16:48;;;;;;;26.60;13.50;;;;;;;-0.31;97.77;101413.16;20736885;28;20046;-69
2021/04/15 05:26:50;;;;;;;29.70;13.90;;;;;;;-0.16;96.82;101415.81;20748577;28;20505;-68
2021/04/15 05:36:55;;;;;;;23.05;13.48;;;;;;;0.06;96.15;101428.78;20746762;28;20050;-68
2021/04/15 05:46:56;;;;;;;28.23;14.85;;;;;;;0.33;95.44;101431.47;20746939;28;20100;-67
2021/04/15 05:57:02;;;;;;;25.95;14.45;;;;;;;0.62;94.13;101435.00;20745371;28;20049;-68
2021/04/15 06:07:06;;;;;;;25.98;14.55;;;;;;;0.78;93.60;101426.47;20740817;28;20128;-68
2021/04/15 06:17:26;;;;;;;24.40;14.00;;;;;;;1.04;92.58;101438.53;20747153;28;20057;-68
2021/04/15 06:27:29;;;;;;;23.77;13.93;;;;;;;1.54;90.52;101444.56;20743758;28;20137;-68
2021/04/15 06:37:39;;;;;;;22.63;13.18;;;;;;;1.66;90.14;101441.97;20740373;28;20092;-68
2021/04/15 06:47:52;;;;;;;24.95;13.50;;;;;;;1.93;87.32;101450.53;20737959;28;20152;-68
2021/04/15 06:58:06;;;;;;;61.92;15.90;;;;;;;2.12;86.43;101447.03;20674324;28;20109;-68
2021/04/15 07:08:39;;;;;;;20.25;11.40;;;;;;;2.42;84.72;101446.94;20732521;28;20085;-68
2021/04/15 07:19:25;;;;;;;18.40;10.50;;;;;;;2.63;82.12;101456.31;20740981;28;20050;-67
2021/04/15 07:29:53;;;;;;;32.88;12.32;;;;;;;3.05;81.81;101450.03;20670105;28;20041;-68
2021/04/15 07:40:11;;;;;;;16.92;9.40;;;;;;;3.54;78.73;101449.66;20738362;28;20501;-68
2021/04/15 07:50:40;;;;;;;14.65;7.88;;;;;;;3.96;76.12;101451.84;20738647;28;20050;-67
2021/04/15 08:01:08;;;;;;;35.88;10.30;;;;;;;4.24;72.52;101455.00;20737102;28;20053;-68
2021/04/15 08:11:37;;;;;;;16.35;8.55;;;;;;;4.54;72.02;101453.75;20738273;28;20042;-68
2021/04/15 08:21:47;;;;;;;15.00;7.65;;;;;;;4.74;70.42;101449.16;20739128;28;20054;-72
2021/04/15 08:32:09;;;;;;;13.02;7.50;;;;;;;5.04;69.29;101451.34;20735560;28;20564;-72
2021/04/15 08:42:29;;;;;;;13.70;7.60;;;;;;;5.27;68.51;101451.00;20734660;28;20046;-70
2021/04/15 08:52:59;;;;;;;14.98;7.63;;;;;;;5.34;65.93;101460.38;20737361;28;20042;-69
2021/04/15 09:03:37;;;;;;;12.45;6.90;;;;;;;5.67;64.87;101456.38;20749309;28;20194;-67
2021/04/15 09:14:13;;;;;;;12.93;7.60;;;;;;;6.55;61.66;101465.16;20750289;28;20042;-67
2021/04/15 09:24:44;;;;;;;13.05;7.20;;;;;;;6.88;59.61;101453.16;20750072;28;20042;-68
2021/04/15 09:34:54;;;;;;;15.70;7.30;;;;;;;7.13;57.02;101445.63;20757915;28;20461;-68
2021/04/15 09:45:07;;;;;;;11.15;5.88;;;;;;;6.76;56.76;101440.41;20755264;28;20050;-68
2021/04/15 09:55:28;;;;;;;13.10;5.30;;;;;;;8.08;53.01;101424.94;20746325;28;20050;-69
2021/04/15 10:05:29;;;;;;;10.70;4.57;;;;;;;8.21;48.49;101415.03;20742235;28;20068;-68
2021/04/15 10:15:40;;;;;;;7.82;4.05;;;;;;;7.88;48.05;101411.59;20746946;28;20046;-68
2021/04/15 10:26:16;;;;;;;6.43;2.72;;;;;;;9.15;41.91;101401.75;20746512;28;20108;-68
2021/04/15 10:36:27;;;;;;;6.90;3.40;;;;;;;9.59;44.90;101375.91;20709063;28;20709;-68
2021/04/15 10:46:55;;;;;;;10.50;4.95;;;;;;;8.98;42.49;101360.53;20751205;28;20041;-69
2021/04/15 10:57:13;;;;;;;6.55;3.30;;;;;;;9.47;41.23;101365.84;20744451;28;20046;-69
2021/04/15 11:07:18;;;;;;;8.98;4.05;;;;;;;9.76;41.68;101355.22;20741867;28;20068;-70
2021/04/15 11:17:32;;;;;;;7.33;4.33;;;;;;;8.28;45.52;101363.56;20740882;28;20046;-68
2021/04/15 11:27:36;;;;;;;6.40;3.63;;;;;;;8.10;50.04;101359.72;20739855;28;20050;-69
2021/04/15 11:37:40;;;;;;;8.50;4.25;;;;;;;8.18;51.01;101361.19;20739817;28;20056;-69
2021/04/15 11:47:41;;;;;;;9.48;3.78;;;;;;;8.36;47.65;101367.69;20740798;28;20108;-69
2021/04/15 11:57:54;;;;;;;7.82;4.20;;;;;;;8.30;48.58;101357.41;20739649;28;20049;-69
2021/04/15 12:08:05;;;;;;;5.95;2.72;;;;;;;8.88;44.22;101347.81;20738933;28;20049;-69
2021/04/15 12:18:19;;;;;;;6.55;2.95;;;;;;;9.71;41.76;101342.34;20740241;28;20100;-70
2021/04/15 12:28:42;;;;;;;7.70;3.65;;;;;;;9.50;40.78;101339.63;20772243;28;20113;-69
2021/04/15 12:38:50;;;;;;;7.00;3.90;;;;;;;8.37;48.00;101345.06;20675450;28;20175;-68
2021/04/15 12:48:59;;;;;;;9.82;3.90;;;;;;;7.94;51.42;101343.66;20753916;28;20117;-68
2021/04/15 12:59:01;;;;;;;8.90;4.30;;;;;;;7.76;53.63;101333.75;20750070;28;20050;-68
2021/04/15 13:09:03;;;;;;;8.50;3.35;;;;;;;7.91;50.96;101325.50;20751936;28;20085;-68
2021/04/15 13:19:04;;;;;;;7.43;3.83;;;;;;;8.44;48.53;101308.28;20751702;28;20420;-68
2021/04/15 13:29:18;;;;;;;6.35;3.33;;;;;;;8.93;46.10;101296.28;20753272;28;20058;-69
2021/04/15 13:39:35;;;;;;;5.68;3.05;;;;;;;9.17;43.66;101273.72;20749643;28;20041;-68
2021/04/15 13:49:38;;;;;;;5.25;2.97;;;;;;;8.87;43.28;101275.59;20752027;28;20047;-68
2021/04/15 13:59:48;;;;;;;6.40;3.42;;;;;;;7.95;43.59;101279.34;20749819;28;20453;-68
2021/04/15 14:09:54;;;;;;;6.53;3.40;;;;;;;8.01;43.17;101258.31;20746575;28;20100;-67
2021/04/15 14:20:30;;;;;;;9.45;2.83;;;;;;;8.70;40.39;101243.97;20750289;28;20124;-68
2021/04/15 14:30:31;;;;;;;7.10;2.90;;;;;;;8.76;38.66;101231.59;20743946;28;20049;-68
2021/04/15 14:40:39;;;;;;;6.07;1.92;;;;;;;9.26;38.26;101216.78;20745401;28;20056;-67
2021/04/15 14:50:40;;;;;;;5.90;2.03;;;;;;;9.47;36.52;101214.28;20763616;28;20084;-68
2021/04/15 15:00:57;;;;;;;5.53;2.58;;;;;;;9.35;42.31;101216.44;20787465;28;20053;-68
2021/04/15 15:11:00;;;;;;;5.18;2.53;;;;;;;9.50;45.74;101208.97;20742760;28;20410;-68
2021/04/15 15:21:18;;;;;;;8.77;3.58;;;;;;;9.40;41.44;101224.09;20741841;28;20053;-68
2021/04/15 15:31:19;;;;;;;5.13;2.60;;;;;;;8.94;39.81;101230.09;20740237;28;20104;-68
2021/04/15 15:41:20;;;;;;;5.90;2.35;;;;;;;8.89;37.94;101208.50;20739648;28;20076;-68
2021/04/15 15:51:31;;;;;;;30.35;8.05;;;;;;;9.27;39.79;101205.44;20742459;28;20042;-68
2021/04/15 16:01:32;;;;;;;7.57;2.85;;;;;;;8.72;40.83;101218.69;20738955;28;20454;-67
2021/04/15 16:11:43;;;;;;;5.25;2.70;;;;;;;8.48;43.59;101202.09;20738071;28;20068;-68
2021/04/15 16:21:45;;;;;;;5.93;2.70;;;;;;;8.86;43.81;101200.81;20737725;28;20533;-68
2021/04/15 16:31:49;;;;;;;5.85;2.40;;;;;;;8.73;41.21;101205.59;20734803;28;20042;-68
2021/04/15 16:41:53;;;;;;;7.55;3.17;;;;;;;8.43;45.00;101207.44;20738203;28;20528;-69
2021/04/15 16:51:55;;;;;;;8.95;3.75;;;;;;;8.30;46.01;101216.56;20738261;28;20108;-68
2021/04/15 17:01:56;;;;;;;6.70;2.85;;;;;;;7.86;47.46;101222.28;20745018;28;20097;-68
2021/04/15 17:11:58;;;;;;;7.72;2.85;;;;;;;7.62;49.59;101232.50;20736143;28;20050;-69
2021/04/15 17:21:59;;;;;;;5.78;2.67;;;;;;;7.48;49.96;101224.22;20727504;28;20097;-69
2021/04/15 17:32:07;;;;;;;14.27;3.92;;;;;;;7.16;51.55;101211.28;20749393;28;20076;-69
2021/04/15 17:42:09;;;;;;;7.82;2.78;;;;;;;6.85;51.33;101214.69;20750843;28;20493;-69
2021/04/15 17:52:09;;;;;;;8.68;3.28;;;;;;;6.77;51.96;101203.59;20751169;28;20058;-69
2021/04/15 18:02:11;;;;;;;6.15;2.42;;;;;;;6.56;52.91;101209.34;20749816;28;20081;-69
2021/04/15 18:12:13;;;;;;;6.63;2.95;;;;;;;6.47;54.15;101201.78;20749739;28;20054;-68
2021/04/15 18:22:13;;;;;;;5.60;2.60;;;;;;;6.07;56.19;101214.00;20749409;28;20057;-68
2021/04/15 18:32:15;;;;;;;5.78;2.22;;;;;;;5.94;59.04;101214.28;20741452;28;20046;-68
2021/04/15 18:42:16;;;;;;;11.07;4.95;;;;;;;6.14;56.68;101233.78;20747253;28;20060;-68
2021/04/15 18:52:17;;;;;;;10.85;4.22;;;;;;;6.33;55.38;101248.06;20745186;28;20438;-68
2021/04/15 19:02:19;;;;;;;7.30;3.28;;;;;;;6.33;58.69;101251.53;20717541;28;20077;-68
2021/04/15 19:12:20;;;;;;;6.30;2.80;;;;;;;6.54;54.92;101265.75;20734034;28;20088;-68
2021/04/15 19:22:21;;;;;;;9.38;4.25;;;;;;;6.26;60.09;101299.34;20745477;28;20050;-70
2021/04/15 19:32:22;;;;;;;9.10;4.45;;;;;;;6.25;58.30;101256.03;20744357;28;20046;-69
2021/04/15 19:42:24;;;;;;;6.97;3.30;;;;;;;6.44;54.27;101267.72;20735047;28;20116;-69
2021/04/15 19:52:25;;;;;;;12.75;6.10;;;;;;;6.19;56.67;101270.94;20737111;28;20042;-69
2021/04/15 20:02:26;;;;;;;13.30;5.43;;;;;;;6.00;57.36;101266.09;20724088;28;20101;-70
2021/04/15 20:12:27;;;;;;;9.43;3.55;;;;;;;5.87;59.27;101266.41;20735959;28;20046;-69
2021/04/15 20:22:28;;;;;;;7.03;2.72;;;;;;;5.56;62.58;101269.59;20734456;28;20037;-69
2021/04/15 20:32:30;;;;;;;7.15;2.88;;;;;;;5.14;65.02;101260.88;20743309;28;20429;-69
2021/04/15 20:42:31;;;;;;;7.70;2.95;;;;;;;4.85;64.97;101265.72;20715890;28;20050;-69
2021/04/15 20:52:33;;;;;;;9.30;3.28;;;;;;;4.48;65.70;101272.38;20706126;28;20053;-69
2021/04/15 21:02:34;;;;;;;7.45;3.40;;;;;;;4.19;68.22;101265.03;20732931;28;20050;-69
2021/04/15 21:12:35;;;;;;;7.53;3.30;;;;;;;4.03;69.22;101267.00;20729281;28;20493;-68
2021/04/15 21:22:36;;;;;;;9.57;3.40;;;;;;;3.65;69.80;101266.63;20727531;28;20050;-68
2021/04/15 21:32:37;;;;;;;9.50;4.40;;;;;;;3.55;69.29;101259.84;20728641;28;20060;-68
2021/04/15 21:42:38;;;;;;;10.73;4.70;;;;;;;3.68;69.28;101269.19;20733513;28;20054;-68
2021/04/15 21:52:39;;;;;;;10.68;5.10;;;;;;;3.73;67.72;101260.47;20743239;28;20553;-69
2021/04/15 22:02:40;;;;;;;10.48;5.18;;;;;;;3.54;68.34;101265.91;20736205;28;20395;-68
2021/04/15 22:12:42;;;;;;;12.55;5.32;;;;;;;3.36;69.02;101265.22;20726053;28;20061;-67
2021/04/15 22:22:43;;;;;;;10.13;5.22;;;;;;;3.30;68.94;101265.28;20745639;28;20129;-66
2021/04/15 22:32:45;;;;;;;10.18;5.07;;;;;;;3.19;69.23;101261.13;20759188;28;20501;-67
2021/04/15 22:42:46;;;;;;;8.88;4.70;;;;;;;3.05;69.42;101263.00;20825197;28;20045;-67
2021/04/15 22:52:50;;;;;;;10.48;4.95;;;;;;;3.00;68.95;101271.63;20824874;28;20045;-67
2021/04/15 23:02:51;;;;;;;8.88;4.40;;;;;;;2.65;69.94;101265.91;20767992;28;20486;-67
2021/04/15 23:12:52;;;;;;;14.10;4.40;;;;;;;2.49;70.28;101262.56;20740910;28;20052;-66
2021/04/15 23:22:54;;;;;;;9.77;4.40;;;;;;;2.28;70.55;101265.34;20740142;28;20046;-67
2021/04/15 23:32:55;;;;;;;8.57;3.97;;;;;;;2.33;70.32;101261.00;20738997;28;20110;-66
2021/04/15 23:42:57;;;;;;;9.45;3.80;;;;;;;2.19;70.40;101260.19;20738868;28;20104;-68
2021/04/15 23:52:59;;;;;;;9.40;3.92;;;;;;;2.15;70.98;101253.34;20738386;28;20045;-67
